sensor_id;sensor_type;location;lat;lon;timestamp;pressure;altitude;pressure_sealevel;temperature
27715;BMP280;16051;53.024;8.630;2023-02-01T00:00:11;101378.84;;;6.04
27715;BMP280;16051;53.024;8.630;2023-02-01T00:04:14;101369.50;;;6.02
27715;BMP280;16051;53.024;8.630;2023-02-01T00:08:16;101364.84;;;5.99
27715;BMP280;16051;53.024;8.630;2023-02-01T00:12:18;101345.31;;;5.97
27715;BMP280;16051;53.024;8.630;2023-02-01T00:16:24;101359.53;;;5.91
27715;BMP280;16051;53.024;8.630;2023-02-01T00:20:27;101349.44;;;6.05
27715;BMP280;16051;53.024;8.630;2023-02-01T00:24:29;101341.56;;;6.07
27715;BMP280;16051;53.024;8.630;2023-02-01T00:28:32;101333.34;;;6.07
27715;BMP280;16051;53.024;8.630;2023-02-01T00:32:35;101334.63;;;6.02
27715;BMP280;16051;53.024;8.630;2023-02-01T00:36:38;101313.25;;;5.93
27715;BMP280;16051;53.024;8.630;2023-02-01T00:40:40;101329.28;;;5.95
27715;BMP280;16051;53.024;8.630;2023-02-01T00:44:42;101326.31;;;6.06
27715;BMP280;16051;53.024;8.630;2023-02-01T00:48:45;101323.66;;;6.02
27715;BMP280;16051;53.024;8.630;2023-02-01T00:52:47;101322.78;;;6.05
27715;BMP280;16051;53.024;8.630;2023-02-01T00:56:50;101311.28;;;5.94
27715;BMP280;16051;53.024;8.630;2023-02-01T01:01:02;101295.09;;;6.00
27715;BMP280;16051;53.024;8.630;2023-02-01T01:05:06;101294.06;;;5.93
27715;BMP280;16051;53.024;8.630;2023-02-01T01:09:09;101302.75;;;6.08
27715;BMP280;16051;53.024;8.630;2023-02-01T01:13:20;101304.44;;;6.02
27715;BMP280;16051;53.024;8.630;2023-02-01T01:17:22;101289.47;;;6.07
27715;BMP280;16051;53.024;8.630;2023-02-01T01:21:26;101281.66;;;6.05
27715;BMP280;16051;53.024;8.630;2023-02-01T01:25:28;101288.94;;;6.12
27715;BMP280;16051;53.024;8.630;2023-02-01T01:29:30;101290.16;;;6.11
27715;BMP280;16051;53.024;8.630;2023-02-01T01:33:32;101276.84;;;6.09
27715;BMP280;16051;53.024;8.630;2023-02-01T01:37:36;101270.19;;;6.10
27715;BMP280;16051;53.024;8.630;2023-02-01T01:41:38;101268.38;;;6.04
27715;BMP280;16051;53.024;8.630;2023-02-01T01:45:40;101253.38;;;6.08
27715;BMP280;16051;53.024;8.630;2023-02-01T01:49:43;101258.16;;;6.04
27715;BMP280;16051;53.024;8.630;2023-02-01T01:53:55;101247.19;;;6.04
27715;BMP280;16051;53.024;8.630;2023-02-01T01:58:03;101241.78;;;6.01
27715;BMP280;16051;53.024;8.630;2023-02-01T02:02:06;101230.00;;;6.04
27715;BMP280;16051;53.024;8.630;2023-02-01T02:06:17;101234.34;;;6.01
27715;BMP280;16051;53.024;8.630;2023-02-01T02:10:23;101224.75;;;5.93
27715;BMP280;16051;53.024;8.630;2023-02-01T02:14:46;101222.69;;;5.97
27715;BMP280;16051;53.024;8.630;2023-02-01T02:19:05;101213.63;;;6.00
27715;BMP280;16051;53.024;8.630;2023-02-01T02:28:27;101195.16;;;6.01
27715;BMP280;16051;53.024;8.630;2023-02-01T02:33:02;101186.19;;;6.00
27715;BMP280;16051;53.024;8.630;2023-02-01T02:37:19;101195.84;;;6.05
27715;BMP280;16051;53.024;8.630;2023-02-01T02:41:54;101187.13;;;6.10
27715;BMP280;16051;53.024;8.630;2023-02-01T02:46:24;101181.38;;;6.04
27715;BMP280;16051;53.024;8.630;2023-02-01T02:50:50;101183.78;;;6.02
27715;BMP280;16051;53.024;8.630;2023-02-01T02:55:13;101175.88;;;6.04
27715;BMP280;16051;53.024;8.630;2023-02-01T02:59:21;101171.34;;;5.98
27715;BMP280;16051;53.024;8.630;2023-02-01T03:03:44;101171.09;;;5.92
27715;BMP280;16051;53.024;8.630;2023-02-01T03:08:11;101161.84;;;6.02
27715;BMP280;16051;53.024;8.630;2023-02-01T03:12:16;101149.50;;;5.94
27715;BMP280;16051;53.024;8.630;2023-02-01T03:16:52;101146.69;;;5.98
27715;BMP280;16051;53.024;8.630;2023-02-01T03:21:02;101147.28;;;6.05
27715;BMP280;16051;53.024;8.630;2023-02-01T03:25:10;101139.22;;;5.82
27715;BMP280;16051;53.024;8.630;2023-02-01T03:29:27;101133.47;;;5.76
27715;BMP280;16051;53.024;8.630;2023-02-01T03:33:32;101127.22;;;5.60
27715;BMP280;16051;53.024;8.630;2023-02-01T03:37:34;101119.91;;;5.69
27715;BMP280;16051;53.024;8.630;2023-02-01T03:41:42;101144.75;;;5.62
27715;BMP280;16051;53.024;8.630;2023-02-01T03:45:52;101140.00;;;5.46
27715;BMP280;16051;53.024;8.630;2023-02-01T03:50:01;101140.25;;;5.36
27715;BMP280;16051;53.024;8.630;2023-02-01T03:54:06;101132.13;;;5.32
27715;BMP280;16051;53.024;8.630;2023-02-01T03:58:14;101118.16;;;5.27
27715;BMP280;16051;53.024;8.630;2023-02-01T04:02:18;101114.41;;;5.21
27715;BMP280;16051;53.024;8.630;2023-02-01T04:06:21;101106.03;;;5.28
27715;BMP280;16051;53.024;8.630;2023-02-01T04:10:24;101091.28;;;5.22
27715;BMP280;16051;53.024;8.630;2023-02-01T04:14:26;101101.81;;;5.23
27715;BMP280;16051;53.024;8.630;2023-02-01T04:18:29;101073.31;;;5.21
27715;BMP280;16051;53.024;8.630;2023-02-01T04:22:31;101068.25;;;5.19
27715;BMP280;16051;53.024;8.630;2023-02-01T04:26:34;101066.13;;;5.27
27715;BMP280;16051;53.024;8.630;2023-02-01T04:30:36;101076.38;;;5.23
27715;BMP280;16051;53.024;8.630;2023-02-01T04:34:39;101066.38;;;5.16
27715;BMP280;16051;53.024;8.630;2023-02-01T04:38:41;101061.91;;;5.22
27715;BMP280;16051;53.024;8.630;2023-02-01T04:42:43;101063.03;;;5.25
27715;BMP280;16051;53.024;8.630;2023-02-01T04:46:47;101060.72;;;5.23
27715;BMP280;16051;53.024;8.630;2023-02-01T04:50:50;101051.25;;;5.28
27715;BMP280;16051;53.024;8.630;2023-02-01T04:54:53;101041.72;;;5.32
27715;BMP280;16051;53.024;8.630;2023-02-01T04:58:58;101046.44;;;5.32
27715;BMP280;16051;53.024;8.630;2023-02-01T05:03:00;101052.34;;;5.30
27715;BMP280;16051;53.024;8.630;2023-02-01T05:07:04;101038.97;;;5.32
27715;BMP280;16051;53.024;8.630;2023-02-01T05:11:06;101046.34;;;5.35
27715;BMP280;16051;53.024;8.630;2023-02-01T05:15:28;101061.69;;;5.33
27715;BMP280;16051;53.024;8.630;2023-02-01T05:19:30;101050.88;;;5.26
27715;BMP280;16051;53.024;8.630;2023-02-01T05:23:34;101042.84;;;5.19
27715;BMP280;16051;53.024;8.630;2023-02-01T05:27:57;101030.69;;;5.20
27715;BMP280;16051;53.024;8.630;2023-02-01T05:31:59;101044.09;;;5.14
27715;BMP280;16051;53.024;8.630;2023-02-01T05:36:01;101041.66;;;5.20
27715;BMP280;16051;53.024;8.630;2023-02-01T05:40:06;101033.59;;;5.13
27715;BMP280;16051;53.024;8.630;2023-02-01T05:44:09;101033.91;;;5.15
27715;BMP280;16051;53.024;8.630;2023-02-01T05:48:12;101031.63;;;5.13
27715;BMP280;16051;53.024;8.630;2023-02-01T05:52:14;101028.69;;;5.04
27715;BMP280;16051;53.024;8.630;2023-02-01T05:56:21;101002.09;;;5.05
27715;BMP280;16051;53.024;8.630;2023-02-01T06:00:24;101028.28;;;5.22
27715;BMP280;16051;53.024;8.630;2023-02-01T06:04:26;101032.91;;;5.25
27715;BMP280;16051;53.024;8.630;2023-02-01T06:08:28;101037.47;;;5.31
27715;BMP280;16051;53.024;8.630;2023-02-01T06:12:32;101039.75;;;5.33
27715;BMP280;16051;53.024;8.630;2023-02-01T06:16:34;101042.69;;;5.42
27715;BMP280;16051;53.024;8.630;2023-02-01T06:20:36;101062.09;;;5.47
27715;BMP280;16051;53.024;8.630;2023-02-01T06:24:38;101071.03;;;5.52
27715;BMP280;16051;53.024;8.630;2023-02-01T06:28:43;101073.50;;;5.46
27715;BMP280;16051;53.024;8.630;2023-02-01T06:32:50;101063.38;;;5.43
27715;BMP280;16051;53.024;8.630;2023-02-01T06:36:54;101063.66;;;5.49
27715;BMP280;16051;53.024;8.630;2023-02-01T06:40:57;101056.81;;;5.40
27715;BMP280;16051;53.024;8.630;2023-02-01T06:45:01;101073.72;;;5.35
27715;BMP280;16051;53.024;8.630;2023-02-01T06:49:03;101076.72;;;5.25
27715;BMP280;16051;53.024;8.630;2023-02-01T06:53:12;101073.22;;;5.24
27715;BMP280;16051;53.024;8.630;2023-02-01T06:57:14;101070.66;;;5.33
27715;BMP280;16051;53.024;8.630;2023-02-01T07:01:18;101074.19;;;5.34
27715;BMP280;16051;53.024;8.630;2023-02-01T07:05:21;101068.63;;;5.37
27715;BMP280;16051;53.024;8.630;2023-02-01T07:09:23;101082.75;;;5.52
27715;BMP280;16051;53.024;8.630;2023-02-01T07:13:25;101075.66;;;5.55
27715;BMP280;16051;53.024;8.630;2023-02-01T07:17:29;101086.97;;;5.57
27715;BMP280;16051;53.024;8.630;2023-02-01T07:21:31;101086.00;;;5.63
27715;BMP280;16051;53.024;8.630;2023-02-01T07:25:35;101081.56;;;5.53
27715;BMP280;16051;53.024;8.630;2023-02-01T07:29:37;101085.25;;;5.63
27715;BMP280;16051;53.024;8.630;2023-02-01T07:33:41;101091.91;;;5.62
27715;BMP280;16051;53.024;8.630;2023-02-01T07:37:48;101110.94;;;5.69
27715;BMP280;16051;53.024;8.630;2023-02-01T07:41:50;101101.78;;;5.59
27715;BMP280;16051;53.024;8.630;2023-02-01T07:45:53;101122.66;;;5.69
27715;BMP280;16051;53.024;8.630;2023-02-01T07:49:57;101127.44;;;5.65
27715;BMP280;16051;53.024;8.630;2023-02-01T07:53:59;101124.47;;;5.60
27715;BMP280;16051;53.024;8.630;2023-02-01T07:58:01;101130.44;;;5.55
27715;BMP280;16051;53.024;8.630;2023-02-01T08:02:03;101122.22;;;5.55
27715;BMP280;16051;53.024;8.630;2023-02-01T08:06:07;101131.91;;;5.59
27715;BMP280;16051;53.024;8.630;2023-02-01T08:10:11;101132.41;;;5.54
27715;BMP280;16051;53.024;8.630;2023-02-01T08:14:13;101145.41;;;5.50
27715;BMP280;16051;53.024;8.630;2023-02-01T08:18:15;101145.63;;;5.59
27715;BMP280;16051;53.024;8.630;2023-02-01T08:22:20;101150.31;;;5.59
27715;BMP280;16051;53.024;8.630;2023-02-01T08:26:25;101138.09;;;5.63
27715;BMP280;16051;53.024;8.630;2023-02-01T08:30:27;101140.47;;;5.61
27715;BMP280;16051;53.024;8.630;2023-02-01T08:34:29;101149.47;;;5.62
27715;BMP280;16051;53.024;8.630;2023-02-01T08:38:35;101138.59;;;5.74
27715;BMP280;16051;53.024;8.630;2023-02-01T08:42:37;101137.56;;;5.84
27715;BMP280;16051;53.024;8.630;2023-02-01T08:46:54;101152.06;;;5.85
27715;BMP280;16051;53.024;8.630;2023-02-01T08:50:57;101141.88;;;5.85
27715;BMP280;16051;53.024;8.630;2023-02-01T08:55:20;101152.00;;;5.88
27715;BMP280;16051;53.024;8.630;2023-02-01T08:59:22;101149.50;;;5.94
27715;BMP280;16051;53.024;8.630;2023-02-01T09:03:24;101144.38;;;5.96
27715;BMP280;16051;53.024;8.630;2023-02-01T09:07:34;101145.47;;;5.99
27715;BMP280;16051;53.024;8.630;2023-02-01T09:11:38;101132.88;;;6.01
27715;BMP280;16051;53.024;8.630;2023-02-01T09:15:40;101131.50;;;6.09
27715;BMP280;16051;53.024;8.630;2023-02-01T09:19:42;101132.69;;;6.08
27715;BMP280;16051;53.024;8.630;2023-02-01T09:23:46;101122.69;;;6.18
27715;BMP280;16051;53.024;8.630;2023-02-01T09:27:50;101120.06;;;6.27
27715;BMP280;16051;53.024;8.630;2023-02-01T09:31:52;101112.38;;;6.22
27715;BMP280;16051;53.024;8.630;2023-02-01T09:35:59;101119.75;;;6.25
27715;BMP280;16051;53.024;8.630;2023-02-01T09:40:05;101118.00;;;6.31
27715;BMP280;16051;53.024;8.630;2023-02-01T09:44:27;101119.78;;;6.37
27715;BMP280;16051;53.024;8.630;2023-02-01T09:48:37;101104.00;;;6.41
27715;BMP280;16051;53.024;8.630;2023-02-01T09:52:44;101102.91;;;6.39
27715;BMP280;16051;53.024;8.630;2023-02-01T09:57:02;101101.16;;;6.45
27715;BMP280;16051;53.024;8.630;2023-02-01T10:01:16;101111.28;;;6.48
27715;BMP280;16051;53.024;8.630;2023-02-01T10:05:37;101107.00;;;6.47
27715;BMP280;16051;53.024;8.630;2023-02-01T10:09:58;101109.84;;;6.43
27715;BMP280;16051;53.024;8.630;2023-02-01T10:14:09;101097.13;;;6.50
27715;BMP280;16051;53.024;8.630;2023-02-01T10:18:35;101087.34;;;6.49
27715;BMP280;16051;53.024;8.630;2023-02-01T10:23:01;101087.22;;;6.39
27715;BMP280;16051;53.024;8.630;2023-02-01T10:27:20;101077.44;;;6.38
27715;BMP280;16051;53.024;8.630;2023-02-01T10:31:28;101058.66;;;6.37
27715;BMP280;16051;53.024;8.630;2023-02-01T10:35:37;101074.47;;;6.33
27715;BMP280;16051;53.024;8.630;2023-02-01T10:39:40;101059.81;;;6.23
27715;BMP280;16051;53.024;8.630;2023-02-01T10:43:43;101052.03;;;6.22
27715;BMP280;16051;53.024;8.630;2023-02-01T10:47:55;101029.03;;;6.32
27715;BMP280;16051;53.024;8.630;2023-02-01T10:52:06;101021.91;;;6.34
27715;BMP280;16051;53.024;8.630;2023-02-01T10:56:13;101019.41;;;6.40
27715;BMP280;16051;53.024;8.630;2023-02-01T11:00:20;101006.31;;;6.44
27715;BMP280;16051;53.024;8.630;2023-02-01T11:04:26;100998.06;;;6.31
27715;BMP280;16051;53.024;8.630;2023-02-01T11:08:43;100987.97;;;6.28
27715;BMP280;16051;53.024;8.630;2023-02-01T11:12:53;100969.41;;;6.20
27715;BMP280;16051;53.024;8.630;2023-02-01T11:17:00;100987.16;;;6.15
27715;BMP280;16051;53.024;8.630;2023-02-01T11:21:04;100963.59;;;6.18
27715;BMP280;16051;53.024;8.630;2023-02-01T11:25:13;100959.19;;;6.08
27715;BMP280;16051;53.024;8.630;2023-02-01T11:29:18;100942.16;;;5.84
27715;BMP280;16051;53.024;8.630;2023-02-01T11:33:40;100929.94;;;5.88
27715;BMP280;16051;53.024;8.630;2023-02-01T11:37:59;100912.22;;;5.77
27715;BMP280;16051;53.024;8.630;2023-02-01T11:42:11;100887.72;;;5.70
27715;BMP280;16051;53.024;8.630;2023-02-01T11:46:19;100899.00;;;5.59
27715;BMP280;16051;53.024;8.630;2023-02-01T11:50:50;100896.00;;;5.54
27715;BMP280;16051;53.024;8.630;2023-02-01T11:55:11;100871.88;;;5.49
27715;BMP280;16051;53.024;8.630;2023-02-01T11:59:46;100850.09;;;5.58
27715;BMP280;16051;53.024;8.630;2023-02-01T12:04:42;100829.50;;;5.53
27715;BMP280;16051;53.024;8.630;2023-02-01T12:09:08;100823.75;;;5.47
27715;BMP280;16051;53.024;8.630;2023-02-01T12:13:30;100855.34;;;5.52
27715;BMP280;16051;53.024;8.630;2023-02-01T12:22:59;100975.03;;;4.90
27715;BMP280;16051;53.024;8.630;2023-02-01T12:27:29;100973.97;;;4.32
27715;BMP280;16051;53.024;8.630;2023-02-01T12:31:58;100976.81;;;4.06
27715;BMP280;16051;53.024;8.630;2023-02-01T12:36:19;101007.09;;;3.95
27715;BMP280;16051;53.024;8.630;2023-02-01T12:40:47;101020.13;;;3.87
27715;BMP280;16051;53.024;8.630;2023-02-01T12:44:55;101005.34;;;3.85
27715;BMP280;16051;53.024;8.630;2023-02-01T12:49:05;100992.81;;;4.07
27715;BMP280;16051;53.024;8.630;2023-02-01T12:53:24;100983.22;;;4.19
27715;BMP280;16051;53.024;8.630;2023-02-01T12:57:31;100979.13;;;4.46
27715;BMP280;16051;53.024;8.630;2023-02-01T13:01:39;100988.00;;;4.70
27715;BMP280;16051;53.024;8.630;2023-02-01T13:05:49;100990.22;;;4.75
27715;BMP280;16051;53.024;8.630;2023-02-01T13:09:58;100983.25;;;4.90
27715;BMP280;16051;53.024;8.630;2023-02-01T13:14:07;100994.69;;;4.85
27715;BMP280;16051;53.024;8.630;2023-02-01T13:18:19;100993.50;;;4.86
27715;BMP280;16051;53.024;8.630;2023-02-01T13:22:29;100984.38;;;5.09
27715;BMP280;16051;53.024;8.630;2023-02-01T13:26:33;100995.94;;;5.17
27715;BMP280;16051;53.024;8.630;2023-02-01T13:31:20;101005.09;;;5.26
27715;BMP280;16051;53.024;8.630;2023-02-01T13:40:39;100985.94;;;5.42
27715;BMP280;16051;53.024;8.630;2023-02-01T13:45:04;100994.47;;;5.44
27715;BMP280;16051;53.024;8.630;2023-02-01T13:49:20;101004.75;;;5.40
27715;BMP280;16051;53.024;8.630;2023-02-01T13:53:29;100999.69;;;5.39
27715;BMP280;16051;53.024;8.630;2023-02-01T13:57:38;101000.47;;;5.39
27715;BMP280;16051;53.024;8.630;2023-02-01T14:01:49;101002.19;;;5.50
27715;BMP280;16051;53.024;8.630;2023-02-01T14:06:02;100999.25;;;5.89
27715;BMP280;16051;53.024;8.630;2023-02-01T14:10:48;100990.25;;;6.17
27715;BMP280;16051;53.024;8.630;2023-02-01T14:14:51;100987.72;;;6.64
27715;BMP280;16051;53.024;8.630;2023-02-01T14:19:20;100985.19;;;6.95
27715;BMP280;16051;53.024;8.630;2023-02-01T14:23:28;100992.13;;;7.12
27715;BMP280;16051;53.024;8.630;2023-02-01T14:27:44;100983.19;;;7.21
27715;BMP280;16051;53.024;8.630;2023-02-01T14:32:16;100992.56;;;7.23
27715;BMP280;16051;53.024;8.630;2023-02-01T14:36:20;100988.56;;;7.24
27715;BMP280;16051;53.024;8.630;2023-02-01T14:40:29;100995.19;;;7.14
27715;BMP280;16051;53.024;8.630;2023-02-01T14:44:41;100997.41;;;6.94
27715;BMP280;16051;53.024;8.630;2023-02-01T14:48:47;100995.63;;;7.00
27715;BMP280;16051;53.024;8.630;2023-02-01T14:53:20;100985.19;;;6.95
27715;BMP280;16051;53.024;8.630;2023-02-01T14:57:27;100999.03;;;6.91
27715;BMP280;16051;53.024;8.630;2023-02-01T15:01:33;101008.16;;;7.01
27715;BMP280;16051;53.024;8.630;2023-02-01T15:05:35;101000.13;;;7.07
27715;BMP280;16051;53.024;8.630;2023-02-01T15:09:43;101003.75;;;7.04
27715;BMP280;16051;53.024;8.630;2023-02-01T15:13:55;101002.44;;;7.08
27715;BMP280;16051;53.024;8.630;2023-02-01T15:18:04;101017.72;;;6.97
27715;BMP280;16051;53.024;8.630;2023-02-01T15:22:18;101003.31;;;6.80
27715;BMP280;16051;53.024;8.630;2023-02-01T15:26:31;101013.75;;;6.85
27715;BMP280;16051;53.024;8.630;2023-02-01T15:30:35;101020.34;;;6.75
27715;BMP280;16051;53.024;8.630;2023-02-01T15:34:48;101019.34;;;6.69
27715;BMP280;16051;53.024;8.630;2023-02-01T15:39:13;101016.59;;;6.69
27715;BMP280;16051;53.024;8.630;2023-02-01T15:43:20;101023.50;;;6.73
27715;BMP280;16051;53.024;8.630;2023-02-01T15:47:27;101030.88;;;6.89
27715;BMP280;16051;53.024;8.630;2023-02-01T15:51:46;101044.41;;;6.96
27715;BMP280;16051;53.024;8.630;2023-02-01T15:55:55;101046.28;;;6.86
27715;BMP280;16051;53.024;8.630;2023-02-01T16:00:03;101056.78;;;6.75
27715;BMP280;16051;53.024;8.630;2023-02-01T16:04:17;101083.78;;;6.77
27715;BMP280;16051;53.024;8.630;2023-02-01T16:08:25;101096.00;;;6.76
27715;BMP280;16051;53.024;8.630;2023-02-01T16:12:34;101110.25;;;6.71
27715;BMP280;16051;53.024;8.630;2023-02-01T16:16:38;101115.81;;;6.55
27715;BMP280;16051;53.024;8.630;2023-02-01T16:20:42;101129.66;;;6.35
27715;BMP280;16051;53.024;8.630;2023-02-01T16:24:44;101143.41;;;6.19
27715;BMP280;16051;53.024;8.630;2023-02-01T16:28:46;101135.03;;;6.10
27715;BMP280;16051;53.024;8.630;2023-02-01T16:33:00;101141.88;;;6.02
27715;BMP280;16051;53.024;8.630;2023-02-01T16:37:03;101162.25;;;5.84
27715;BMP280;16051;53.024;8.630;2023-02-01T16:41:05;101138.25;;;5.72
27715;BMP280;16051;53.024;8.630;2023-02-01T16:45:12;101136.94;;;5.61
27715;BMP280;16051;53.024;8.630;2023-02-01T16:49:20;101129.25;;;5.56
27715;BMP280;16051;53.024;8.630;2023-02-01T16:53:25;101128.72;;;5.44
27715;BMP280;16051;53.024;8.630;2023-02-01T16:57:28;101142.69;;;5.50
27715;BMP280;16051;53.024;8.630;2023-02-01T17:01:45;101137.09;;;5.37
27715;BMP280;16051;53.024;8.630;2023-02-01T17:05:54;101142.59;;;5.37
27715;BMP280;16051;53.024;8.630;2023-02-01T17:09:57;101127.09;;;5.47
27715;BMP280;16051;53.024;8.630;2023-02-01T17:14:16;101136.91;;;5.64
27715;BMP280;16051;53.024;8.630;2023-02-01T17:18:18;101136.88;;;5.80
27715;BMP280;16051;53.024;8.630;2023-02-01T17:22:30;101143.41;;;5.86
27715;BMP280;16051;53.024;8.630;2023-02-01T17:26:32;101141.50;;;5.83
27715;BMP280;16051;53.024;8.630;2023-02-01T17:30:35;101162.09;;;5.91
27715;BMP280;16051;53.024;8.630;2023-02-01T17:34:38;101164.34;;;5.97
27715;BMP280;16051;53.024;8.630;2023-02-01T17:38:42;101167.25;;;6.06
27715;BMP280;16051;53.024;8.630;2023-02-01T17:42:45;101178.06;;;5.97
27715;BMP280;16051;53.024;8.630;2023-02-01T17:46:47;101173.91;;;6.05
27715;BMP280;16051;53.024;8.630;2023-02-01T17:50:50;101174.78;;;6.02
27715;BMP280;16051;53.024;8.630;2023-02-01T17:55:17;101183.69;;;6.06
27715;BMP280;16051;53.024;8.630;2023-02-01T17:59:25;101179.50;;;6.01
27715;BMP280;16051;53.024;8.630;2023-02-01T18:03:29;101211.72;;;6.13
27715;BMP280;16051;53.024;8.630;2023-02-01T18:07:38;101193.03;;;6.08
27715;BMP280;16051;53.024;8.630;2023-02-01T18:11:42;101198.50;;;6.08
27715;BMP280;16051;53.024;8.630;2023-02-01T18:15:58;101194.66;;;6.06
27715;BMP280;16051;53.024;8.630;2023-02-01T18:20:01;101196.81;;;6.14
27715;BMP280;16051;53.024;8.630;2023-02-01T18:24:04;101187.81;;;6.14
27715;BMP280;16051;53.024;8.630;2023-02-01T18:28:09;101177.53;;;6.18
27715;BMP280;16051;53.024;8.630;2023-02-01T18:32:11;101165.44;;;5.99
27715;BMP280;16051;53.024;8.630;2023-02-01T18:36:19;101178.41;;;6.15
27715;BMP280;16051;53.024;8.630;2023-02-01T18:40:24;101175.84;;;6.08
27715;BMP280;16051;53.024;8.630;2023-02-01T18:44:28;101184.63;;;6.15
27715;BMP280;16051;53.024;8.630;2023-02-01T18:48:30;101189.47;;;6.11
27715;BMP280;16051;53.024;8.630;2023-02-01T18:52:32;101196.72;;;6.18
27715;BMP280;16051;53.024;8.630;2023-02-01T19:01:53;101201.53;;;6.14
27715;BMP280;16051;53.024;8.630;2023-02-01T19:05:56;101204.59;;;6.16
27715;BMP280;16051;53.024;8.630;2023-02-01T19:15:00;101212.84;;;6.16
27715;BMP280;16051;53.024;8.630;2023-02-01T19:19:03;101203.91;;;6.12
27715;BMP280;16051;53.024;8.630;2023-02-01T19:23:06;101216.19;;;6.07
27715;BMP280;16051;53.024;8.630;2023-02-01T19:27:08;101220.13;;;6.06
27715;BMP280;16051;53.024;8.630;2023-02-01T19:31:10;101212.75;;;6.03
27715;BMP280;16051;53.024;8.630;2023-02-01T19:35:17;101219.84;;;6.01
27715;BMP280;16051;53.024;8.630;2023-02-01T19:39:22;101221.75;;;6.04
27715;BMP280;16051;53.024;8.630;2023-02-01T19:43:24;101228.00;;;6.04
27715;BMP280;16051;53.024;8.630;2023-02-01T19:51:40;101232.63;;;5.91
27715;BMP280;16051;53.024;8.630;2023-02-01T19:55:44;101248.75;;;5.89
27715;BMP280;16051;53.024;8.630;2023-02-01T19:59:47;101240.38;;;5.76
27715;BMP280;16051;53.024;8.630;2023-02-01T20:03:59;101252.09;;;5.77
27715;BMP280;16051;53.024;8.630;2023-02-01T20:08:05;101237.06;;;5.65
27715;BMP280;16051;53.024;8.630;2023-02-01T20:12:11;101240.81;;;5.75
27715;BMP280;16051;53.024;8.630;2023-02-01T20:16:13;101252.00;;;5.64
27715;BMP280;16051;53.024;8.630;2023-02-01T20:20:16;101256.78;;;5.60
27715;BMP280;16051;53.024;8.630;2023-02-01T20:24:20;101256.97;;;5.69
27715;BMP280;16051;53.024;8.630;2023-02-01T20:28:22;101263.00;;;5.80
27715;BMP280;16051;53.024;8.630;2023-02-01T20:32:24;101268.53;;;5.77
27715;BMP280;16051;53.024;8.630;2023-02-01T20:36:28;101265.66;;;5.84
27715;BMP280;16051;53.024;8.630;2023-02-01T20:40:32;101268.22;;;5.75
27715;BMP280;16051;53.024;8.630;2023-02-01T20:44:47;101271.53;;;5.86
27715;BMP280;16051;53.024;8.630;2023-02-01T20:48:50;101284.38;;;5.89
27715;BMP280;16051;53.024;8.630;2023-02-01T20:55:30;101291.06;;;5.88
27715;BMP280;16051;53.024;8.630;2023-02-01T21:03:39;101281.56;;;5.92
27715;BMP280;16051;53.024;8.630;2023-02-01T21:08:37;101286.75;;;5.87
27715;BMP280;16051;53.024;8.630;2023-02-01T21:13:21;101284.38;;;5.89
27715;BMP280;16051;53.024;8.630;2023-02-01T21:17:57;101284.00;;;5.87
27715;BMP280;16051;53.024;8.630;2023-02-01T21:22:50;101306.41;;;6.02
27715;BMP280;16051;53.024;8.630;2023-02-01T21:27:20;101296.59;;;5.84
27715;BMP280;16051;53.024;8.630;2023-02-01T21:31:44;101294.50;;;5.92
27715;BMP280;16051;53.024;8.630;2023-02-01T21:36:07;101276.84;;;5.73
27715;BMP280;16051;53.024;8.630;2023-02-01T21:40:20;101291.06;;;5.88
27715;BMP280;16051;53.024;8.630;2023-02-01T21:44:23;101294.00;;;5.77
27715;BMP280;16051;53.024;8.630;2023-02-01T21:48:25;101304.75;;;5.88
27715;BMP280;16051;53.024;8.630;2023-02-01T22:04:15;101292.72;;;5.82
27715;BMP280;16051;53.024;8.630;2023-02-01T22:13:39;101313.31;;;5.90
27715;BMP280;16051;53.024;8.630;2023-02-01T22:18:06;101291.25;;;5.77
27715;BMP280;16051;53.024;8.630;2023-02-01T22:22:42;101320.56;;;5.80
27715;BMP280;16051;53.024;8.630;2023-02-01T22:26:57;101319.38;;;5.81
27715;BMP280;16051;53.024;8.630;2023-02-01T22:31:47;101336.88;;;5.87
27715;BMP280;16051;53.024;8.630;2023-02-01T22:35:58;101332.50;;;5.90
27715;BMP280;16051;53.024;8.630;2023-02-01T22:41:16;101348.31;;;6.02
27715;BMP280;16051;53.024;8.630;2023-02-01T22:46:37;101342.28;;;5.91
27715;BMP280;16051;53.024;8.630;2023-02-01T22:56:56;101353.03;;;6.02
27715;BMP280;16051;53.024;8.630;2023-02-01T23:01:50;101329.09;;;5.86
27715;BMP280;16051;53.024;8.630;2023-02-01T23:07:04;101338.28;;;5.96
27715;BMP280;16051;53.024;8.630;2023-02-01T23:11:19;101344.03;;;6.01
27715;BMP280;16051;53.024;8.630;2023-02-01T23:15:42;101355.06;;;5.98
27715;BMP280;16051;53.024;8.630;2023-02-01T23:20:07;101375.81;;;6.18
27715;BMP280;16051;53.024;8.630;2023-02-01T23:24:17;101375.88;;;6.15
27715;BMP280;16051;53.024;8.630;2023-02-01T23:28:41;101376.06;;;6.24
27715;BMP280;16051;53.024;8.630;2023-02-01T23:32:54;101382.56;;;6.14
27715;BMP280;16051;53.024;8.630;2023-02-01T23:37:20;101398.09;;;6.20
27715;BMP280;16051;53.024;8.630;2023-02-01T23:41:50;101389.69;;;6.11
27715;BMP280;16051;53.024;8.630;2023-02-01T23:46:07;101380.53;;;5.98
27715;BMP280;16051;53.024;8.630;2023-02-01T23:50:22;101385.88;;;6.05
27715;BMP280;16051;53.024;8.630;2023-02-01T23:54:50;101421.53;;;6.05
27715;BMP280;16051;53.024;8.630;2023-02-01T23:59:02;101389.88;;;6.01
